Treece, Kansas
Current Conditions -  °F | °C
As of 6:53 PM on Tuesday 25 Nov 2014 (Local Time) from KJLN Reporting Station
Clear Clear  
Wind Chill: 30°   Ceiling: Unl
Heat Index: 36°   Visibility: 10mi
Dew Point: 20°   Wind: 7mph
Humidity: 52%   Direction: 150°SSE
Pressure: 30.13"   Gusts: NA
Location:  37°N, 94.84°W
Report Text: KJLN 260053Z 15006KT 10SM CLR 02/M07 A3013 RMK AO2 SLP210 T00221067
Loading
Personal Weather Stations






























Interactive Weather Map New forecast layout! Learn more

10-Day Weather Forecast

Advertisements
Track Severe Weather on mobile